Omidiyeh, Iran
Current Conditions -  °F | °C
As of 11:00 PM on Friday 31 Oct 2014 (Local Time) from OIAG Reporting Station
Thunderstorm Thunderstorm  
Wind Chill: 24°   Ceiling: Unl
Heat Index: 24°   Visibility: 6mi
Dew Point: 12°   Wind: 20mph
Humidity: 47%   Direction: 100°E
Pressure: 29.8"   Gusts: NA
Location:  30.75°N, 49.71°E
Report Text: OIAG 312000Z 10017KT 9999 TS SCT035CB SCT040 24/12 Q1009
Loading
Personal Weather Stations






























Interactive Weather Map
Tropical Storm Tracking
New forecast layout! Learn more

10-Day Weather Forecast

Advertisements
Track Severe Weather on mobile